PRINT OUT SECTION, show »

METAR EPBY 230130Z 17009KT 130V200 9999 BKN018 BKN026 09/06 Q0989=

METAR EPGD 230130Z 16011KT 9999 FEW006 BKN010 07/05 Q0988 =

METAR EPKK 230130Z 20004KT 9999 -RA FEW035 BKN053 10/04 Q0997 =

METAR EPKT 230130Z 20010KT 9999 -RA BKN038 OVC045 09/04 Q0996 =

METAR EPLB 230130Z 18009KT CAVOK 08/06 Q0999 =

METAR EPLL 230130Z 18008KT 120V220 9999 -RA BKN032 OVC046 09/06 Q0993
=

METAR EPML 230130Z NIL=

METAR EPMO 230130Z 14008KT 100V180 9999 BKN038 08/04 Q0994 =

METAR EPPO 230130Z 19011KT 9999 OVC042 09/07 Q0989 =

METAR EPRA 230130Z 17010KT 9999 FEW046 08/05 Q0996=

METAR EPRZ 230130Z 20009KT 160V220 CAVOK 09/04 Q0999 =

METAR EPSC 230130Z 16013KT 9999 FEW011 10/09 Q0984 =

METAR EPSY 230130Z 17010KT 140V200 9999 SCT033 OVC041 07/04 Q0993=

METAR EPWA 230130Z 15011KT 9999 FEW044 08/04 Q0995 NOSIG=

METAR EPWR 230130Z 18007KT 150V210 CAVOK 11/07 Q0992 =

METAR EPZG 230130Z NIL=
 METAR EPLB
Lokalizacja:EPLB Lublin
Czas:01:30 UTC
Średni kierunek wiatru:180 °
Średnia prędkość wiatru:9 węzłów
CAVOK:Widzialność 10 km i więcej, zjawisko: NIL, zachmurzenie: NSC
Temperatura powietrza:8 °C
Temperatura punktu rosy:6 °C
Ciśnienie QNH:999 hPa